Time;durP1;ratioP1;P1;durP2;ratioP2;P2;SDS_P1;SDS_P2;PMS_P1;PMS_P2;Temp;Humidity;BMP_temperature;BMP_pressure;BME280_temperature;BME280_humidity;BME280_pressure;Samples;Min_cycle;Max_cycle;Signal;HPM_P1;HPM_P2
2024/03/12 00:01:51;;;;;;;;;40.25;35.25;;;;;12.04;77.03;101032.38;5078809;27;45345;-64
2024/03/12 00:04:16;;;;;;;;;38.50;33.00;;;;;12.03;76.91;101039.53;5080610;27;51119;-64
2024/03/12 00:06:42;;;;;;;;;42.50;34.75;;;;;12.01;77.12;101036.06;5079209;27;45957;-64
2024/03/12 00:09:09;;;;;;;;;31.50;28.25;;;;;12.02;76.94;101043.13;5081900;27;46171;-64
2024/03/12 00:11:37;;;;;;;;;34.25;30.00;;;;;12.06;77.29;101057.28;5081631;27;45651;-64
2024/03/12 00:14:03;;;;;;;;;29.00;26.50;;;;;12.08;77.29;101063.47;5082000;28;45423;-64
2024/03/12 00:16:29;;;;;;;;;36.75;32.00;;;;;12.06;77.61;101057.28;5077129;27;45400;-64
2024/03/12 00:18:55;;;;;;;;;36.00;30.50;;;;;12.05;77.53;101064.44;5080885;27;46113;-64
2024/03/12 00:21:21;;;;;;;;;33.50;31.00;;;;;12.05;77.26;101058.22;5081733;27;45373;-64
2024/03/12 00:23:47;;;;;;;;;38.25;34.75;;;;;12.09;77.28;101073.22;5081873;28;45302;-64
2024/03/12 00:26:17;;;;;;;;;30.75;27.75;;;;;12.09;77.34;101075.03;5078055;27;45539;-64
2024/03/12 00:28:43;;;;;;;;;33.75;31.00;;;;;12.10;77.20;101071.47;5081612;27;46029;-64
2024/03/12 00:31:09;;;;;;;;;36.00;31.00;;;;;12.07;77.34;101069.75;5081233;27;45369;-64
2024/03/12 00:33:35;;;;;;;;;24.50;22.25;;;;;12.11;77.35;101074.09;5081692;27;45437;-64
2024/03/12 00:36:01;;;;;;;;;39.00;35.25;;;;;12.12;77.59;101085.66;5080325;27;45338;-64
2024/03/12 00:38:29;;;;;;;;;34.50;30.75;;;;;12.07;77.54;101069.75;5081524;27;45926;-64
2024/03/12 00:40:55;;;;;;;;;34.25;31.75;;;;;11.97;77.22;101063.81;5081493;27;45302;-64
2024/03/12 00:43:20;;;;;;;;;28.25;27.25;;;;;12.06;77.40;101092.06;5081580;27;45520;-64
2024/03/12 00:45:46;;;;;;;;;40.50;32.00;;;;;12.00;77.40;101086.94;5078233;27;45527;-64
2024/03/12 00:48:17;;;;;;;;;32.50;30.00;;;;;12.02;77.51;101106.47;5081279;28;45529;-64
2024/03/12 00:50:45;;;;;;;;;30.25;30.25;;;;;11.99;77.49;101101.22;5081260;27;45626;-64
2024/03/12 00:53:11;;;;;;;;;34.50;32.50;;;;;12.04;77.37;101115.31;5081271;27;45556;-64
2024/03/12 00:55:36;;;;;;;;;30.00;28.00;;;;;12.02;76.85;101120.72;5080623;27;45530;-64
2024/03/12 00:58:04;;;;;;;;;36.00;29.75;;;;;12.06;77.34;101118.81;5080838;27;46127;-64
2024/03/12 01:00:33;;;;;;;;;27.75;25.75;;;;;12.08;77.03;101119.66;5080802;27;45651;-64
2024/03/12 01:02:59;;;;;;;;;28.00;27.00;;;;;12.09;77.03;101139.25;5081213;27;45373;-64
2024/03/12 01:05:26;;;;;;;;;29.50;27.00;;;;;12.09;77.16;101139.25;5078223;27;45577;-64
2024/03/12 01:07:58;;;;;;;;;24.75;22.00;;;;;12.09;77.15;101136.59;5079895;27;45467;-64
2024/03/12 01:10:26;;;;;;;;;29.75;28.25;;;;;12.08;76.93;101137.50;5080435;27;45493;-64
2024/03/12 01:12:53;;;;;;;;;31.50;24.00;;;;;12.06;77.03;101142.91;5080725;28;45583;-64
2024/03/12 01:15:19;;;;;;;;;26.00;23.00;;;;;12.01;76.89;101132.38;5079628;27;45494;-64
2024/03/12 01:17:47;;;;;;;;;25.00;24.50;;;;;11.98;76.94;101119.09;5080339;27;46187;-64
2024/03/12 01:20:16;;;;;;;;;26.00;23.25;;;;;12.04;76.89;101118.00;5080642;27;45652;-64
2024/03/12 01:22:45;;;;;;;;;24.00;21.25;;;;;12.06;77.08;101129.53;5081009;28;45463;-64
2024/03/12 01:25:11;;;;;;;;;30.00;27.75;;;;;12.05;76.77;101114.41;5077248;27;45618;-64
2024/03/12 01:27:37;;;;;;;;;28.00;25.75;;;;;12.04;76.83;101118.00;5080269;27;45477;-64
2024/03/12 01:30:06;;;;;;;;;33.50;29.50;;;;;12.06;76.74;101121.50;5080927;28;45598;-64
2024/03/12 01:32:33;;;;;;;;;27.00;23.75;;;;;12.06;76.98;101134.88;5080610;27;45474;-64
2024/03/12 01:34:58;;;;;;;;;28.50;24.50;;;;;12.07;77.02;101138.44;5079781;27;45507;-64
2024/03/12 01:37:24;;;;;;;;;23.00;22.00;;;;;11.94;76.55;101109.38;5079462;28;66379;-64
2024/03/12 01:39:53;;;;;;;;;24.75;23.00;;;;;12.05;76.74;101131.34;5079191;27;45952;-64
2024/03/12 01:42:21;;;;;;;;;29.50;23.50;;;;;12.05;76.67;101133.16;5080504;28;45345;-64
2024/03/12 01:44:52;;;;;;;;;25.50;21.75;;;;;12.06;76.67;101134.88;5079910;27;45680;-64
2024/03/12 01:47:20;;;;;;;;;28.00;21.75;;;;;12.03;76.82;101130.50;5079774;27;46244;-64
2024/03/12 01:49:48;;;;;;;;;23.75;22.75;;;;;12.07;76.46;101139.31;5080751;27;45338;-64
2024/03/12 01:52:16;;;;;;;;;23.00;21.00;;;;;12.07;76.50;101133.09;5080531;27;45402;-64
2024/03/12 01:54:43;;;;;;;;;22.50;21.50;;;;;12.07;76.52;101133.09;5078783;27;45381;-64
2024/03/12 01:57:10;;;;;;;;;26.50;21.75;;;;;12.08;76.50;101132.16;5078933;27;45485;-64
2024/03/12 01:59:36;;;;;;;;;22.00;22.00;;;;;12.03;76.18;101125.16;5080268;28;45615;-64
2024/03/12 02:02:01;;;;;;;;;20.25;19.00;;;;;12.05;76.19;101127.78;5079884;28;45368;-64
2024/03/12 02:04:26;;;;;;;;;20.50;18.00;;;;;12.00;76.24;101117.22;5079631;27;45372;-64
2024/03/12 02:06:52;;;;;;;;;24.00;20.25;;;;;12.02;75.98;101114.50;5079421;27;46470;-64
2024/03/12 02:09:20;;;;;;;;;19.25;19.25;;;;;12.04;75.81;101123.34;5079960;28;45403;-64
2024/03/12 02:11:45;;;;;;;;;21.50;20.75;;;;;12.07;75.78;101122.38;5079928;27;45536;-64
2024/03/12 02:14:11;;;;;;;;;18.00;17.25;;;;;12.06;75.84;101129.53;5079404;27;61730;-64
2024/03/12 02:16:38;;;;;;;;;26.50;20.00;;;;;12.04;75.97;101126.03;5077132;27;46012;-64
2024/03/12 02:19:05;;;;;;;;;22.50;21.00;;;;;12.03;76.42;101122.50;5079957;27;45589;-64
2024/03/12 02:21:30;;;;;;;;;20.75;19.75;;;;;12.05;75.82;101119.75;5079498;27;45353;-64
2024/03/12 02:23:56;;;;;;;;;20.00;20.00;;;;;12.07;75.89;101127.75;5080259;27;45387;-64
2024/03/12 02:26:22;;;;;;;;;19.75;18.50;;;;;12.06;75.92;101132.19;5078529;27;46313;-64
2024/03/12 02:28:47;;;;;;;;;18.75;16.00;;;;;12.07;75.55;101130.41;5080013;27;45343;-64
2024/03/12 02:31:12;;;;;;;;;22.50;19.25;;;;;12.07;75.57;101127.75;5079504;27;45398;-64
2024/03/12 02:33:38;;;;;;;;;20.75;19.00;;;;;12.04;75.72;101128.69;5078624;27;45504;-64
2024/03/12 02:36:05;;;;;;;;;19.75;19.75;;;;;12.00;75.99;101129.75;5077745;28;47610;-64
2024/03/12 02:38:30;;;;;;;;;19.50;16.00;;;;;12.06;76.10;101134.88;5079785;27;45306;-64
2024/03/12 02:40:55;;;;;;;;;21.25;18.50;;;;;12.00;75.78;101129.75;5079585;28;45325;-64
2024/03/12 02:43:21;;;;;;;;;24.00;21.75;;;;;12.06;75.67;101148.25;5078471;27;58538;-64
2024/03/12 02:45:47;;;;;;;;;21.75;18.00;;;;;11.99;75.96;101131.53;5078334;28;46286;-66
2024/03/12 02:48:12;;;;;;;;;20.00;19.25;;;;;12.06;76.11;101148.25;5079536;27;45436;-64
2024/03/12 02:50:40;;;;;;;;;22.50;19.25;;;;;12.02;75.82;101142.13;5079460;28;45599;-64
2024/03/12 02:53:08;;;;;;;;;20.50;18.50;;;;;12.01;76.00;101140.41;5079640;27;45399;-64
2024/03/12 02:55:36;;;;;;;;;17.00;14.75;;;;;12.01;75.82;101142.16;5076133;27;45720;-64
2024/03/12 02:58:05;;;;;;;;;19.50;19.50;;;;;11.99;75.64;101138.69;5079112;27;45337;-64
2024/03/12 03:00:31;;;;;;;;;22.25;17.50;;;;;11.96;75.90;101141.44;5076943;28;45342;-64
2024/03/12 03:02:56;;;;;;;;;16.00;16.00;;;;;11.90;75.93;101138.97;5079303;27;45487;-64
2024/03/12 03:05:22;;;;;;;;;19.00;17.75;;;;;11.93;76.20;101144.22;5077826;27;68557;-64
2024/03/12 03:07:48;;;;;;;;;22.50;20.00;;;;;11.89;76.52;101132.72;5078982;28;45318;-64
2024/03/12 03:10:14;;;;;;;;;16.25;15.75;;;;;11.94;76.39;101146.84;5079266;27;45413;-64
2024/03/12 03:12:43;;;;;;;;;19.50;17.25;;;;;11.93;76.46;101153.13;5079207;27;45317;-64
2024/03/12 03:15:11;;;;;;;;;17.75;14.75;;;;;11.90;76.48;101150.53;5077940;27;46427;-64
2024/03/12 03:17:38;;;;;;;;;20.50;16.25;;;;;11.92;76.28;101156.72;5078315;27;45393;-64
2024/03/12 03:20:05;;;;;;;;;18.00;17.25;;;;;11.92;76.63;101154.06;5079049;27;45305;-64
2024/03/12 03:22:30;;;;;;;;;20.25;17.25;;;;;11.86;76.76;101155.09;5079221;27;45251;-64
2024/03/12 03:24:55;;;;;;;;;16.50;15.00;;;;;11.81;77.36;101150.78;5075594;27;45449;-64
2024/03/12 03:27:21;;;;;;;;;13.75;13.75;;;;;11.74;77.56;101146.56;5078233;28;61375;-64
2024/03/12 03:29:46;;;;;;;;;18.50;16.00;;;;;11.77;77.79;101151.81;5078483;28;58509;-64
2024/03/12 03:32:11;;;;;;;;;14.50;13.75;;;;;11.77;77.72;101157.19;5078025;28;65209;-64
2024/03/12 03:34:37;;;;;;;;;16.75;15.50;;;;;11.77;77.94;101163.38;5077229;27;66463;-64
2024/03/12 03:37:02;;;;;;;;;13.75;12.25;;;;;11.79;77.96;101153.50;5079834;27;45279;-64
2024/03/12 03:39:28;;;;;;;;;19.50;15.00;;;;;11.75;78.44;101153.69;5081483;28;61013;-64
2024/03/12 03:41:55;;;;;;;;;15.25;14.00;;;;;11.81;78.35;101166.84;5082499;27;45302;-64
2024/03/12 03:44:21;;;;;;;;;16.00;15.25;;;;;11.81;78.72;101175.75;5081527;27;46634;-64
2024/03/12 03:46:46;;;;;;;;;18.75;15.25;;;;;11.81;79.09;101162.38;5082047;27;45390;-64
2024/03/12 03:49:11;;;;;;;;;18.25;14.75;;;;;11.76;79.27;101158.09;5082214;27;45432;-64
2024/03/12 03:51:37;;;;;;;;;20.75;16.25;;;;;11.77;79.29;101158.03;5082348;27;45598;-64
2024/03/12 03:54:02;;;;;;;;;18.25;17.75;;;;;11.78;79.64;101159.81;5078829;27;48238;-64
2024/03/12 03:56:28;;;;;;;;;16.75;14.50;;;;;11.79;79.36;101161.53;5082127;27;45456;-64
2024/03/12 03:58:57;;;;;;;;;13.75;11.25;;;;;11.75;79.62;101154.53;5087622;27;45431;-64
2024/03/12 04:01:24;;;;;;;;;11.75;11.00;;;;;11.78;80.13;101162.47;5081769;28;45318;-64
2024/03/12 04:03:51;;;;;;;;;17.00;15.50;;;;;11.78;80.18;101167.84;5081173;27;46978;-64
2024/03/12 04:06:21;;;;;;;;;15.25;13.00;;;;;11.82;80.02;101171.28;5082054;27;45388;-64
2024/03/12 04:08:46;;;;;;;;;16.75;15.00;;;;;11.72;79.80;101159.97;5082001;27;45491;-64
2024/03/12 04:11:12;;;;;;;;;19.25;13.75;;;;;11.83;79.99;101173.03;5082006;28;45246;-64
2024/03/12 04:13:39;;;;;;;;;15.75;15.25;;;;;11.77;80.64;101167.88;5080891;27;45954;-64
2024/03/12 04:16:05;;;;;;;;;20.00;16.00;;;;;11.78;80.32;101170.50;5080550;27;45327;-64
2024/03/12 04:18:33;;;;;;;;;16.75;16.00;;;;;11.77;80.10;101178.56;5081624;27;45387;-64
2024/03/12 04:20:58;;;;;;;;;17.75;15.00;;;;;11.79;80.28;101174.03;5082039;27;45365;-64
2024/03/12 04:23:24;;;;;;;;;12.50;12.00;;;;;11.84;80.30;101186.38;5081532;27;46210;-64
2024/03/12 04:25:49;;;;;;;;;20.75;18.00;;;;;11.83;80.65;101181.94;5080218;27;45479;-64
2024/03/12 04:28:16;;;;;;;;;16.75;13.75;;;;;11.82;80.65;101195.34;5081462;28;45466;-64
2024/03/12 04:30:42;;;;;;;;;20.25;16.50;;;;;11.78;80.82;101188.38;5081383;27;45234;-64
2024/03/12 04:33:07;;;;;;;;;19.00;19.00;;;;;11.80;81.20;101192.72;5081482;27;47313;-64
2024/03/12 04:35:33;;;;;;;;;19.50;14.75;;;;;11.80;80.99;101203.44;5081327;27;45510;-64
2024/03/12 04:37:59;;;;;;;;;14.25;12.50;;;;;11.80;80.81;101197.22;5081463;27;45654;-64
2024/03/12 04:40:25;;;;;;;;;20.00;16.25;;;;;11.78;81.00;101191.03;5081571;27;45507;-64
2024/03/12 04:42:53;;;;;;;;;18.50;17.50;;;;;11.78;81.25;101193.72;5080590;27;63367;-64
2024/03/12 04:45:20;;;;;;;;;18.00;15.00;;;;;11.79;81.45;101198.97;5080927;27;45498;-64
2024/03/12 04:47:46;;;;;;;;;20.50;16.50;;;;;11.77;81.45;101198.16;5079904;27;45381;-64
2024/03/12 04:50:14;;;;;;;;;22.00;18.00;;;;;11.75;81.61;101188.44;5081486;27;45327;-64
2024/03/12 04:52:40;;;;;;;;;15.25;14.00;;;;;11.76;81.30;101190.19;5067990;28;46960;-64
2024/03/12 04:55:05;;;;;;;;;16.50;14.00;;;;;11.73;81.66;101193.84;5078258;27;45670;-64
2024/03/12 04:57:31;;;;;;;;;19.00;14.25;;;;;11.67;81.77;101184.19;5081279;27;45377;-64
2024/03/12 04:59:56;;;;;;;;;16.00;14.25;;;;;11.75;81.80;101208.03;5081009;28;45395;-64
2024/03/12 05:02:22;;;;;;;;;16.25;12.50;;;;;11.74;81.99;101208.94;5080595;28;49629;-64
2024/03/12 05:04:48;;;;;;;;;20.00;17.00;;;;;11.74;82.30;101206.28;5080517;27;45451;-64
2024/03/12 05:07:13;;;;;;;;;21.75;16.25;;;;;11.75;81.98;101208.03;5079862;28;45575;-64
2024/03/12 05:09:38;;;;;;;;;19.75;14.75;;;;;11.74;82.23;101200.91;5080224;27;45452;-64
2024/03/12 05:12:04;;;;;;;;;16.50;14.00;;;;;11.72;82.17;101199.22;5080663;27;45318;-64
2024/03/12 05:14:29;;;;;;;;;14.25;13.25;;;;;11.73;81.84;101207.22;5080347;27;45345;-64
2024/03/12 05:16:56;;;;;;;;;16.25;15.00;;;;;11.75;82.81;101210.72;5080345;27;45312;-64
2024/03/12 05:19:24;;;;;;;;;13.00;12.50;;;;;11.75;82.47;101216.06;5080622;27;45416;-64
2024/03/12 05:21:49;;;;;;;;;19.50;15.50;;;;;11.74;82.30;101208.09;5080726;27;45262;-64
2024/03/12 05:24:17;;;;;;;;;20.25;15.25;;;;;11.78;82.33;101215.97;5078252;27;45331;-64
2024/03/12 05:26:49;;;;;;;;;14.25;13.50;;;;;11.72;82.74;101209.94;5080003;27;45375;-64
2024/03/12 05:29:14;;;;;;;;;14.00;12.50;;;;;11.77;82.74;101218.69;5080572;27;45513;-64
2024/03/12 05:31:40;;;;;;;;;18.50;17.00;;;;;11.71;82.80;101211.75;5080438;27;45265;-64
2024/03/12 05:34:27;;;;;;;;;19.25;16.25;;;;;11.74;82.66;101219.66;5079837;27;45529;-64
2024/03/12 05:37:02;;;;;;;;;20.25;16.50;;;;;11.78;82.65;101223.13;5079102;28;45546;-64
2024/03/12 05:39:47;;;;;;;;;23.25;15.50;;;;;11.78;82.50;101218.66;5080666;27;45313;-64
2024/03/12 05:50:24;;;;;;;;;20.25;16.50;;;;;11.68;82.74;101218.03;5080335;28;45255;-64
2024/03/12 05:52:49;;;;;;;;;21.50;19.00;;;;;11.77;82.87;101230.25;5080409;27;45361;-64
2024/03/12 05:55:15;;;;;;;;;21.75;16.50;;;;;11.75;82.63;101232.09;5079016;27;66639;-64
2024/03/12 05:57:41;;;;;;;;;16.25;15.75;;;;;11.77;82.58;101227.59;5080065;27;45369;-64
2024/03/12 06:00:07;;;;;;;;;15.75;15.75;;;;;11.75;82.72;101233.91;5078814;27;45388;-64
2024/03/12 06:02:33;;;;;;;;;23.50;20.75;;;;;11.79;82.71;101233.75;5080245;27;46354;-64
2024/03/12 06:04:58;;;;;;;;;20.25;19.00;;;;;11.77;82.40;101232.06;5079469;27;45552;-64
2024/03/12 06:07:23;;;;;;;;;19.50;16.00;;;;;11.72;82.83;101232.19;5080045;27;45521;-64
2024/03/12 06:09:51;;;;;;;;;18.25;18.25;;;;;11.77;82.19;101232.06;5079989;27;45363;-64
2024/03/12 06:12:18;;;;;;;;;18.75;15.25;;;;;11.74;82.04;101229.47;5079926;27;45355;-64
2024/03/12 06:14:43;;;;;;;;;16.00;16.00;;;;;11.77;82.27;101237.41;5079357;27;45374;-64
2024/03/12 06:17:09;;;;;;;;;15.50;15.50;;;;;11.74;81.88;101235.69;5067979;27;45308;-64
2024/03/12 06:19:34;;;;;;;;;18.00;16.00;;;;;11.75;81.98;101248.16;5079927;27;45312;-64
2024/03/12 06:21:59;;;;;;;;;20.75;19.50;;;;;11.71;82.03;101240.25;5066177;28;46556;-65
2024/03/12 06:24:24;;;;;;;;;16.25;14.75;;;;;11.70;82.04;101252.75;5077892;27;51312;-66
2024/03/12 06:26:50;;;;;;;;;22.00;19.25;;;;;11.63;81.91;101243.19;5078791;28;56461;-66
2024/03/12 06:29:16;;;;;;;;;20.75;19.75;;;;;11.60;82.11;101248.59;5078670;28;56738;-66
2024/03/12 06:31:41;;;;;;;;;21.25;18.50;;;;;11.54;81.80;101244.28;5077363;28;45476;-66
2024/03/12 06:34:07;;;;;;;;;19.75;19.00;;;;;11.59;82.04;101252.19;5077862;27;52420;-66
2024/03/12 06:36:32;;;;;;;;;19.00;17.25;;;;;11.58;81.93;101255.81;5077126;27;45856;-66
2024/03/12 06:38:58;;;;;;;;;20.00;16.25;;;;;11.60;82.01;101262.84;5079693;27;45335;-66
2024/03/12 06:41:24;;;;;;;;;15.00;13.75;;;;;11.61;82.03;101258.34;5079414;28;46081;-66
2024/03/12 06:43:49;;;;;;;;;21.50;17.25;;;;;11.61;82.12;101255.69;5079008;27;45457;-66
2024/03/12 06:46:19;;;;;;;;;22.25;20.75;;;;;11.58;82.03;101259.34;5077735;27;45508;-66
2024/03/12 06:48:45;;;;;;;;;22.50;18.50;;;;;11.58;81.65;101255.81;5076474;27;45655;-66
2024/03/12 06:51:11;;;;;;;;;18.25;18.25;;;;;11.52;81.67;101251.47;5077222;27;47055;-65
2024/03/12 06:53:37;;;;;;;;;19.25;16.50;;;;;11.60;81.74;101267.31;5072654;28;45376;-65
2024/03/12 06:56:05;;;;;;;;;16.50;16.00;;;;;11.58;81.76;101270.03;5079012;27;45404;-65
2024/03/12 06:58:31;;;;;;;;;14.50;12.00;;;;;11.59;81.88;101268.22;5077748;27;45653;-65
2024/03/12 07:00:57;;;;;;;;;18.00;18.00;;;;;11.60;81.90;101276.22;5073559;27;45989;-65
2024/03/12 07:03:24;;;;;;;;;17.50;17.00;;;;;11.61;81.38;101272.63;5076241;27;45450;-65
2024/03/12 07:05:54;;;;;;;;;15.00;14.50;;;;;11.61;81.67;101277.97;5076208;28;45263;-65
2024/03/12 07:08:21;;;;;;;;;16.00;15.00;;;;;11.59;81.79;101293.16;5078330;27;45374;-65
2024/03/12 07:10:50;;;;;;;;;18.75;16.25;;;;;11.59;81.66;101285.13;5078305;27;45420;-65
2024/03/12 07:13:17;;;;;;;;;16.25;13.25;;;;;11.57;81.47;101289.66;5078973;27;45358;-65
2024/03/12 07:15:44;;;;;;;;;11.50;9.25;;;;;11.54;81.19;101289.75;5069888;28;45428;-65
2024/03/12 07:18:10;;;;;;;;;18.25;14.25;;;;;11.61;81.66;101294.03;5078694;27;45515;-64
2024/03/12 07:20:35;;;;;;;;;15.00;15.00;;;;;11.59;81.73;101287.81;5077568;27;46604;-64
2024/03/12 07:23:01;;;;;;;;;17.75;15.75;;;;;11.48;81.62;101276.56;5074293;28;45322;-64
2024/03/12 07:25:27;;;;;;;;;18.00;16.50;;;;;11.54;81.54;101294.22;5078273;27;45413;-64
2024/03/12 07:27:53;;;;;;;;;16.50;15.00;;;;;11.53;81.70;101304.03;5072139;28;45423;-64
2024/03/12 07:30:20;;;;;;;;;18.00;17.00;;;;;11.55;81.52;101306.69;5078267;27;45448;-64
2024/03/12 07:32:46;;;;;;;;;17.75;15.25;;;;;11.58;81.60;101307.47;5078324;27;45412;-64
2024/03/12 07:35:13;;;;;;;;;20.50;17.75;;;;;11.58;81.56;101307.47;5078783;27;45411;-64
2024/03/12 07:37:40;;;;;;;;;14.00;14.00;;;;;11.60;81.53;101318.13;5073180;27;45397;-63
2024/03/12 07:40:11;;;;;;;;;17.75;14.50;;;;;11.58;81.64;101317.28;5076942;27;47211;-63
2024/03/12 07:42:42;;;;;;;;;19.00;18.25;;;;;11.59;81.98;101313.69;5074009;27;45434;-63
2024/03/12 07:45:09;;;;;;;;;19.75;15.25;;;;;11.60;81.89;101324.34;5074184;27;45598;-64
2024/03/12 07:47:35;;;;;;;;;17.75;16.75;;;;;11.62;81.72;101313.59;5077761;28;45656;-64
2024/03/12 07:50:02;;;;;;;;;20.00;17.75;;;;;11.60;81.36;101310.97;5074739;27;45595;-64
2024/03/12 07:52:28;;;;;;;;;20.00;16.75;;;;;11.66;81.29;101324.19;5076364;27;45419;-64
2024/03/12 07:54:53;;;;;;;;;21.75;18.00;;;;;11.68;81.07;101325.00;5075645;27;45687;-65
2024/03/12 07:57:19;;;;;;;;;20.25;14.25;;;;;11.68;81.14;101322.34;5076560;27;60485;-64
2024/03/12 07:59:44;;;;;;;;;14.00;13.75;;;;;11.70;81.75;101324.09;5077967;27;46219;-64
2024/03/12 08:02:13;;;;;;;;;19.75;17.25;;;;;11.72;81.48;101323.13;5074726;27;45518;-64
2024/03/12 08:04:48;;;;;;;;;15.75;14.75;;;;;11.72;81.62;101330.28;5078098;27;45293;-65
2024/03/12 08:07:14;;;;;;;;;18.25;16.00;;;;;11.76;81.55;101332.84;5078352;27;45977;-64
2024/03/12 08:09:41;;;;;;;;;21.00;20.00;;;;;11.75;81.10;101333.75;5078059;27;46243;-65
2024/03/12 08:12:13;;;;;;;;;18.50;13.75;;;;;11.81;81.23;101341.59;5074346;27;45509;-64
2024/03/12 08:14:39;;;;;;;;;21.50;18.00;;;;;11.83;81.01;101336.22;5074171;27;45488;-65
2024/03/12 08:17:07;;;;;;;;;15.50;13.25;;;;;11.85;81.66;101342.38;5080290;27;45482;-65
2024/03/12 08:19:33;;;;;;;;;17.75;13.50;;;;;11.87;81.73;101343.22;5076153;27;46384;-65
2024/03/12 08:21:59;;;;;;;;;20.00;16.50;;;;;11.90;81.60;101347.63;5077965;27;45407;-64
2024/03/12 08:24:26;;;;;;;;;16.00;14.50;;;;;11.91;81.03;101335.97;5080669;27;45533;-64
2024/03/12 08:26:51;;;;;;;;;13.25;13.25;;;;;11.93;81.36;101344.88;5081182;27;45573;-65
2024/03/12 08:29:16;;;;;;;;;14.75;14.75;;;;;11.95;80.71;101338.56;5077034;27;46317;-64
2024/03/12 08:31:42;;;;;;;;;15.75;15.75;;;;;11.98;81.07;101342.97;5080279;28;45432;-65
2024/03/12 08:34:15;;;;;;;;;14.00;13.00;;;;;11.97;80.98;101343.88;5081405;28;45348;-64
2024/03/12 08:36:41;;;;;;;;;15.75;12.25;;;;;11.99;80.83;101344.69;5079965;27;45425;-65
2024/03/12 08:39:07;;;;;;;;;12.75;11.75;;;;;11.99;80.94;101337.53;5080539;27;47088;-65
2024/03/12 08:41:33;;;;;;;;;18.25;14.50;;;;;12.00;80.93;101338.44;5081024;27;45329;-65
2024/03/12 08:43:58;;;;;;;;;18.25;14.50;;;;;12.01;80.74;101340.16;5081095;27;45344;-65
2024/03/12 08:46:23;;;;;;;;;18.00;14.75;;;;;12.03;80.96;101352.59;5075585;27;45399;-65
2024/03/12 08:48:48;;;;;;;;;15.25;13.50;;;;;12.02;80.88;101355.31;5080344;28;57821;-65
2024/03/12 08:51:14;;;;;;;;;19.75;15.75;;;;;12.05;80.60;101360.59;5080362;28;45383;-65
2024/03/12 08:53:39;;;;;;;;;16.75;13.25;;;;;12.07;81.11;101365.91;5081049;27;45505;-65
2024/03/12 08:56:05;;;;;;;;;17.25;16.50;;;;;12.07;81.08;101366.75;5079183;27;45464;-65
2024/03/12 08:58:32;;;;;;;;;16.50;14.50;;;;;12.06;81.24;101373.03;5080335;28;46668;-65
2024/03/12 09:00:57;;;;;;;;;9.75;9.75;;;;;12.05;81.07;101368.63;5080213;27;45350;-65
2024/03/12 09:03:23;;;;;;;;;18.50;12.50;;;;;11.99;81.09;101366.09;5080952;27;45480;-65
2024/03/12 09:05:48;;;;;;;;;14.00;13.25;;;;;12.00;81.29;101371.41;5078355;27;46183;-65
2024/03/12 09:08:14;;;;;;;;;18.50;15.00;;;;;12.04;81.40;101375.78;5080618;27;46125;-65
2024/03/12 09:10:40;;;;;;;;;14.50;13.25;;;;;12.08;81.38;101381.91;5080515;27;45671;-65
2024/03/12 09:13:06;;;;;;;;;16.25;13.75;;;;;12.10;81.25;101376.50;5080993;27;45357;-65
2024/03/12 09:15:31;;;;;;;;;15.00;15.00;;;;;12.12;81.50;101383.56;5078376;27;45610;-65
2024/03/12 09:18:06;;;;;;;;;17.50;14.25;;;;;12.14;81.70;101381.72;5080600;27;45452;-65
2024/03/12 09:20:33;;;;;;;;;10.75;10.50;;;;;12.13;81.51;101385.34;5067810;28;45649;-65
2024/03/12 09:22:59;;;;;;;;;15.50;15.50;;;;;12.15;81.41;101380.81;5080596;27;45400;-64
2024/03/12 09:25:24;;;;;;;;;15.50;12.75;;;;;12.19;81.21;101385.13;5079218;27;45330;-65
2024/03/12 09:27:50;;;;;;;;;17.75;12.00;;;;;12.19;81.21;101392.28;5079805;27;63048;-65
2024/03/12 09:30:16;;;;;;;;;11.00;11.00;;;;;12.09;81.26;101380.97;5080263;27;45275;-65
2024/03/12 09:32:43;;;;;;;;;14.00;11.75;;;;;12.11;80.88;101386.28;5080225;27;45432;-65
2024/03/12 09:35:09;;;;;;;;;11.50;11.50;;;;;12.20;80.66;101394.06;5080099;27;45401;-65
2024/03/12 09:37:35;;;;;;;;;10.50;10.50;;;;;12.26;80.39;101399.22;5073443;27;46017;-65
2024/03/12 09:40:03;;;;;;;;;8.25;8.25;;;;;12.26;80.51;101401.88;5079989;27;45587;-65
2024/03/12 09:42:30;;;;;;;;;11.50;10.75;;;;;12.23;80.40;101405.56;5075739;28;45354;-64
2024/03/12 09:44:56;;;;;;;;;14.00;11.75;;;;;12.30;80.37;101416.97;5080004;27;45370;-64
2024/03/12 09:47:23;;;;;;;;;8.25;8.25;;;;;12.31;79.88;101417.81;5078951;27;47049;-64
2024/03/12 09:49:49;;;;;;;;;10.00;7.50;;;;;12.30;80.09;101406.25;5080288;27;45465;-65
2024/03/12 09:52:14;;;;;;;;;12.00;11.25;;;;;12.32;80.65;101422.28;5079126;27;45722;-65
2024/03/12 09:54:40;;;;;;;;;9.50;9.50;;;;;12.29;80.62;101403.63;5077764;27;45389;-65
2024/03/12 09:57:10;;;;;;;;;12.00;11.00;;;;;12.23;80.47;101405.56;5079414;27;46032;-65
2024/03/12 09:59:35;;;;;;;;;9.25;9.25;;;;;12.32;80.37;101411.56;5079988;27;45427;-65
2024/03/12 10:02:01;;;;;;;;;10.50;10.50;;;;;12.30;80.56;101406.25;5079485;28;45368;-65
2024/03/12 10:04:28;;;;;;;;;10.75;10.75;;;;;12.35;81.00;101414.16;5079897;28;45373;-65
2024/03/12 10:06:54;;;;;;;;;12.00;11.25;;;;;12.36;81.08;101407.88;5077246;27;45489;-65
2024/03/12 10:09:25;;;;;;;;;11.75;10.25;;;;;12.21;80.89;101390.44;5077902;27;45632;-65
2024/03/12 10:11:50;;;;;;;;;6.00;6.00;;;;;12.25;81.09;101389.44;5074593;27;45551;-65
2024/03/12 10:14:17;;;;;;;;;11.00;10.00;;;;;12.32;81.21;101401.72;5079660;28;52183;-65
2024/03/12 10:16:43;;;;;;;;;12.50;10.75;;;;;12.33;81.60;101394.56;5078672;27;46075;-65
2024/03/12 10:19:11;;;;;;;;;11.25;10.50;;;;;12.32;81.50;101400.84;5079765;28;45849;-65
2024/03/12 10:21:37;;;;;;;;;12.00;11.50;;;;;12.31;81.80;101393.72;5079559;27;45407;-65
2024/03/12 10:24:30;;;;;;;;;10.75;9.00;;;;;12.32;81.63;101385.66;5079798;27;45513;-65
2024/03/12 10:27:01;;;;;;;;;7.00;7.00;;;;;12.22;81.54;101363.63;5069871;27;46995;-65
2024/03/12 10:29:33;;;;;;;;;12.75;11.25;;;;;12.27;82.06;101382.25;5078837;27;45660;-65
2024/03/12 10:31:58;;;;;;;;;12.50;10.25;;;;;12.26;82.47;101379.59;5079264;27;45344;-65
2024/03/12 10:34:28;;;;;;;;;10.00;9.50;;;;;12.27;82.34;101376.88;5079059;27;45296;-65
2024/03/12 10:36:53;;;;;;;;;14.75;14.25;;;;;12.31;82.44;101385.72;5074556;27;45442;-65
2024/03/12 10:39:27;;;;;;;;;9.75;9.75;;;;;12.31;82.63;101385.72;5078032;27;45578;-65
2024/03/12 10:41:58;;;;;;;;;12.50;10.00;;;;;12.31;82.49;101380.34;5078494;27;45490;-65
2024/03/12 10:44:26;;;;;;;;;12.75;11.00;;;;;12.27;82.93;101379.56;5077817;27;45353;-65
2024/03/12 10:46:53;;;;;;;;;11.50;11.50;;;;;12.30;82.89;101367.91;5077685;27;45377;-65
2024/03/12 10:49:20;;;;;;;;;12.75;10.00;;;;;12.31;83.22;101380.34;5078463;27;45664;-65
2024/03/12 10:51:45;;;;;;;;;15.00;13.00;;;;;12.33;83.23;101373.16;5077812;27;46761;-65
2024/03/12 10:54:13;;;;;;;;;10.25;8.75;;;;;12.31;82.86;101373.22;5078970;27;45459;-65
2024/03/12 10:56:41;;;;;;;;;11.50;11.50;;;;;12.28;83.17;101375.97;5079153;27;46370;-65
2024/03/12 10:59:07;;;;;;;;;9.00;9.00;;;;;12.29;83.70;101366.16;5079166;28;45735;-65
2024/03/12 11:01:35;;;;;;;;;12.00;11.25;;;;;12.28;83.68;101367.94;5079130;27;45444;-65
2024/03/12 11:04:00;;;;;;;;;13.75;12.00;;;;;12.27;83.43;101362.63;5070162;27;45338;-65
2024/03/12 11:06:26;;;;;;;;;11.00;11.00;;;;;12.28;83.40;101367.06;5078416;27;46458;-65
2024/03/12 11:08:51;;;;;;;;;6.50;6.00;;;;;12.27;83.73;101359.97;5079227;27;45430;-65
2024/03/12 11:11:20;;;;;;;;;13.50;11.25;;;;;12.27;83.64;101352.81;5079172;28;45555;-65
2024/03/12 11:13:46;;;;;;;;;10.75;8.25;;;;;12.16;83.97;101344.19;5078257;27;45417;-65
2024/03/12 11:16:15;;;;;;;;;10.25;8.75;;;;;12.16;84.18;101349.56;5078295;28;45374;-65